Time;durP1;ratioP1;P1;durP2;ratioP2;P2;SDS_P1;SDS_P2;PMS_P1;PMS_P2;Temp;Humidity;BMP_temperature;BMP_pressure;BME280_temperature;BME280_humidity;BME280_pressure;Samples;Min_cycle;Max_cycle;Signal;HPM_P1;HPM_P2
2021/07/17 00:01:42;;;;;;;42.50;25.07;;;;;;;19.19;80.68;97178.84;5095541;28;20268;-66
2021/07/17 00:04:07;;;;;;;37.87;23.60;;;;;;;19.11;80.60;97173.75;5093377;28;20193;-66
2021/07/17 00:06:33;;;;;;;44.17;25.87;;;;;;;18.82;82.57;97173.97;5095366;28;20213;-66
2021/07/17 00:08:59;;;;;;;45.23;25.80;;;;;;;19.09;81.19;97173.97;5094825;28;20251;-66
2021/07/17 00:11:24;;;;;;;45.30;25.93;;;;;;;19.33;79.89;97169.00;5093357;28;20185;-66
2021/07/17 00:13:50;;;;;;;42.07;26.63;;;;;;;19.13;79.71;97169.06;5089958;28;20188;-66
2021/07/17 00:16:16;;;;;;;40.77;25.13;;;;;;;18.94;80.99;97171.56;5094812;28;20202;-66
2021/07/17 00:18:42;;;;;;;38.00;25.23;;;;;;;19.19;80.01;97173.53;5097762;28;20205;-67
2021/07/17 00:21:08;;;;;;;45.20;27.80;;;;;;;19.21;80.13;97168.84;5096965;28;20483;-66
2021/07/17 00:23:34;;;;;;;36.73;24.93;;;;;;;19.27;80.46;97164.53;5093439;28;20190;-65
2021/07/17 00:25:59;;;;;;;44.00;25.43;;;;;;;19.42;78.25;97165.06;5093476;28;20190;-67
2021/07/17 00:28:25;;;;;;;38.07;24.70;;;;;;;19.40;78.45;97161.84;5094690;28;20423;-66
2021/07/17 00:30:51;;;;;;;46.10;26.47;;;;;;;19.16;79.42;97158.03;5093229;28;20555;-66
2021/07/17 00:33:17;;;;;;;40.23;24.37;;;;;;;18.86;81.39;97153.13;5096604;28;20477;-65
2021/07/17 00:35:42;;;;;;;43.47;25.03;;;;;;;19.07;80.82;97154.75;5094279;28;20202;-67
2021/07/17 00:38:08;;;;;;;41.10;26.23;;;;;;;19.04;80.40;97144.56;5094068;28;20208;-66
2021/07/17 00:40:34;;;;;;;39.80;24.27;;;;;;;19.11;80.11;97150.69;5093349;28;20318;-66
2021/07/17 00:42:59;;;;;;;43.40;28.00;;;;;;;19.08;80.95;97151.09;5087698;28;20185;-66
2021/07/17 00:45:25;;;;;;;44.17;27.10;;;;;;;19.14;80.40;97144.97;5094045;28;20523;-66
2021/07/17 00:47:51;;;;;;;50.80;27.83;;;;;;;19.13;80.37;97148.63;5095611;28;20192;-66
2021/07/17 00:50:18;;;;;;;47.33;26.40;;;;;;;19.03;80.61;97154.38;5101563;28;20293;-66
2021/07/17 00:52:44;;;;;;;44.60;27.60;;;;;;;19.23;80.11;97152.69;5090178;28;20209;-66
2021/07/17 00:55:11;;;;;;;44.27;27.47;;;;;;;18.93;81.32;97146.00;5093913;28;20494;-66
2021/07/17 00:57:38;;;;;;;40.83;26.40;;;;;;;19.16;80.21;97137.56;5093090;28;20420;-66
2021/07/17 01:00:07;;;;;;;46.80;28.37;;;;;;;19.19;79.39;97142.47;5093795;28;20424;-67
2021/07/17 01:02:37;;;;;;;51.53;29.00;;;;;;;18.96;80.59;97139.47;5092631;28;20442;-70
2021/07/17 01:05:04;;;;;;;42.40;26.67;;;;;;;19.05;80.71;97146.19;5094439;28;20814;-67
2021/07/17 01:07:30;;;;;;;40.93;25.23;;;;;;;19.30;79.08;97142.84;5095545;28;20450;-69
2021/07/17 01:09:56;;;;;;;43.33;26.03;;;;;;;19.24;78.95;97144.50;5076034;28;20428;-66
2021/07/17 01:12:22;;;;;;;51.03;26.63;;;;;;;19.37;78.35;97143.66;5088612;28;20620;-69
2021/07/17 01:14:49;;;;;;;42.00;26.53;;;;;;;19.31;78.10;97142.66;5093100;28;20243;-69
2021/07/17 01:17:15;;;;;;;42.13;25.30;;;;;;;19.09;80.49;97141.28;5077118;28;20443;-69
2021/07/17 01:19:41;;;;;;;42.67;26.07;;;;;;;19.06;79.81;97142.50;5077658;28;20492;-68
2021/07/17 01:22:07;;;;;;;46.43;27.37;;;;;;;18.92;80.23;97138.22;5076835;28;20784;-66
2021/07/17 01:24:33;;;;;;;43.50;28.30;;;;;;;18.83;80.95;97143.75;5093269;28;20454;-67
2021/07/17 01:26:59;;;;;;;43.97;25.63;;;;;;;18.98;79.62;97146.19;5076655;28;20193;-71
2021/07/17 01:29:26;;;;;;;43.00;27.00;;;;;;;18.83;80.92;97148.25;5069348;28;20211;-67
2021/07/17 01:31:52;;;;;;;39.87;26.30;;;;;;;18.80;81.09;97148.66;5095487;28;20424;-68
2021/07/17 01:34:18;;;;;;;40.57;26.17;;;;;;;19.03;80.05;97148.22;5059169;28;20538;-65
2021/07/17 01:36:45;;;;;;;42.23;26.13;;;;;;;18.74;80.99;97152.97;5093887;28;20570;-66
2021/07/17 01:39:10;;;;;;;40.70;25.10;;;;;;;19.08;80.21;97145.78;5095690;28;20258;-65
2021/07/17 01:41:36;;;;;;;43.50;24.90;;;;;;;19.08;79.73;97152.94;5091650;28;20443;-66
2021/07/17 01:44:02;;;;;;;37.23;25.10;;;;;;;19.07;80.23;97152.09;5090373;28;20500;-66
2021/07/17 01:46:28;;;;;;;38.43;26.00;;;;;;;18.95;79.84;97149.28;5094123;28;20628;-68
2021/07/17 01:48:57;;;;;;;39.33;25.00;;;;;;;19.01;79.76;97155.59;5095543;28;20637;-68
2021/07/17 01:51:24;;;;;;;38.03;25.63;;;;;;;19.13;79.54;97150.47;5070514;28;20648;-67
2021/07/17 01:53:55;;;;;;;37.70;24.03;;;;;;;18.90;80.74;97158.88;5092122;28;20914;-66
2021/07/17 01:56:22;;;;;;;39.87;24.40;;;;;;;19.07;79.15;97154.75;5093049;28;20471;-66
2021/07/17 01:58:49;;;;;;;49.07;25.33;;;;;;;19.11;79.27;97156.00;5094108;28;20509;-66
2021/07/17 02:01:15;;;;;;;36.57;24.70;;;;;;;18.93;80.11;97155.78;5094254;28;20853;-68
2021/07/17 02:03:45;;;;;;;40.67;23.90;;;;;;;19.25;78.84;97155.97;5065621;28;20809;-66
2021/07/17 02:06:10;;;;;;;36.03;23.50;;;;;;;19.26;78.26;97155.72;5091054;28;20426;-65
2021/07/17 02:08:37;;;;;;;36.97;24.47;;;;;;;19.00;79.42;97159.28;5093023;28;20964;-65
2021/07/17 02:11:04;;;;;;;37.80;24.47;;;;;;;19.20;78.79;97148.63;5092608;28;20204;-65
2021/07/17 02:13:30;;;;;;;36.10;25.47;;;;;;;19.06;79.17;97147.81;5085725;28;20420;-67
2021/07/17 02:15:57;;;;;;;35.03;24.20;;;;;;;19.00;79.04;97141.50;5092549;28;20470;-67
2021/07/17 02:18:34;;;;;;;38.03;24.67;;;;;;;19.20;78.18;97138.00;5091460;28;20189;-66
2021/07/17 02:21:04;;;;;;;33.43;23.40;;;;;;;19.26;78.54;97134.47;5092610;28;20427;-66
2021/07/17 02:23:30;;;;;;;38.73;23.77;;;;;;;19.28;78.11;97136.94;5094070;28;20416;-66
2021/07/17 02:25:56;;;;;;;32.30;22.00;;;;;;;19.49;78.20;97131.34;5088700;28;20573;-66
2021/07/17 02:28:21;;;;;;;35.20;23.23;;;;;;;19.57;76.95;97137.44;5092521;28;20710;-67
2021/07/17 02:30:49;;;;;;;37.47;22.93;;;;;;;19.34;77.47;97133.44;5092394;28;20182;-67
2021/07/17 02:33:14;;;;;;;31.03;22.90;;;;;;;19.39;76.85;97133.63;5092024;28;20186;-67
2021/07/17 02:35:40;;;;;;;35.97;22.17;;;;;;;19.08;78.70;97143.13;5091990;28;20577;-67
2021/07/17 02:38:05;;;;;;;37.57;22.83;;;;;;;19.26;77.72;97146.97;5091606;28;20254;-67
2021/07/17 02:40:31;;;;;;;33.40;23.60;;;;;;;19.37;77.73;97143.66;5094527;28;20648;-67
2021/07/17 02:42:56;;;;;;;36.57;22.13;;;;;;;18.88;79.11;97133.34;5085589;28;20644;-66
2021/07/17 02:45:22;;;;;;;31.07;21.70;;;;;;;19.17;78.39;97133.09;5094857;28;20198;-66
2021/07/17 02:47:48;;;;;;;34.50;21.87;;;;;;;19.32;77.74;97136.31;5097325;28;20181;-66
2021/07/17 02:50:14;;;;;;;33.20;20.90;;;;;;;19.37;76.81;97133.03;5085803;28;20186;-66
2021/07/17 02:52:40;;;;;;;34.30;21.57;;;;;;;19.29;77.68;97136.72;5086939;28;20208;-67
2021/07/17 02:55:06;;;;;;;36.00;21.27;;;;;;;19.56;75.30;97131.31;5096786;28;20241;-66
2021/07/17 02:57:31;;;;;;;30.77;21.27;;;;;;;19.26;76.46;97139.00;5090589;28;20431;-66
2021/07/17 02:59:58;;;;;;;29.30;20.50;;;;;;;18.82;79.34;97151.94;5091786;28;20428;-66
2021/07/17 03:02:24;;;;;;;34.00;21.17;;;;;;;19.03;77.96;97151.72;5091647;28;20178;-66
2021/07/17 03:04:50;;;;;;;34.10;22.10;;;;;;;18.88;78.48;97146.63;5091711;28;20443;-65
2021/07/17 03:07:15;;;;;;;35.00;22.57;;;;;;;19.00;77.73;97146.00;5091688;28;20424;-65
2021/07/17 03:09:41;;;;;;;36.27;22.30;;;;;;;18.64;79.52;97160.53;5091494;28;20182;-65
2021/07/17 03:12:07;;;;;;;33.40;22.73;;;;;;;18.72;79.83;97149.69;5085060;28;20247;-65
2021/07/17 03:14:32;;;;;;;31.40;22.00;;;;;;;18.90;78.91;97142.94;5090943;28;20202;-65
2021/07/17 03:16:58;;;;;;;40.20;24.40;;;;;;;18.57;79.52;97145.41;5090309;28;20181;-65
2021/07/17 03:19:24;;;;;;;44.60;25.20;;;;;;;18.42;80.37;97148.28;5088314;28;20216;-65
2021/07/17 03:21:50;;;;;;;37.63;24.97;;;;;;;18.58;79.79;97149.69;5091448;28;20254;-65
2021/07/17 03:24:16;;;;;;;37.10;25.20;;;;;;;18.84;78.60;97140.06;5089172;28;20207;-66
2021/07/17 03:26:41;;;;;;;33.03;24.93;;;;;;;18.77;78.42;97144.59;5089214;28;20515;-66
2021/07/17 03:29:07;;;;;;;40.40;24.10;;;;;;;18.79;78.14;97141.72;5077342;28;20186;-66
2021/07/17 03:31:33;;;;;;;39.80;25.87;;;;;;;18.66;78.74;97142.53;5091023;28;20177;-66
2021/07/17 03:34:00;;;;;;;44.33;26.50;;;;;;;18.62;79.22;97146.66;5090680;28;20653;-66
2021/07/17 03:36:25;;;;;;;38.83;23.47;;;;;;;18.54;79.04;97145.81;5090919;28;20494;-66
2021/07/17 03:38:51;;;;;;;40.63;25.50;;;;;;;18.47;79.37;97147.66;5090679;28;20435;-66
2021/07/17 03:41:17;;;;;;;40.47;26.43;;;;;;;18.41;79.47;97145.81;5091235;28;20641;-66
2021/07/17 03:43:43;;;;;;;40.27;24.73;;;;;;;18.62;78.51;97146.66;5091003;28;20181;-67
2021/07/17 03:46:09;;;;;;;41.37;26.13;;;;;;;18.70;78.51;97141.13;5090712;28;20450;-65
2021/07/17 03:48:34;;;;;;;43.47;25.57;;;;;;;18.84;77.42;97150.69;5091083;28;20907;-66
2021/07/17 03:51:00;;;;;;;41.40;24.93;;;;;;;18.90;77.70;97148.25;5090708;28;20192;-67
2021/07/17 03:53:26;;;;;;;40.37;25.43;;;;;;;18.76;77.63;97150.91;5082478;28;20178;-67
2021/07/17 03:55:51;;;;;;;42.37;25.13;;;;;;;19.04;76.27;97149.84;5091072;28;20270;-67
2021/07/17 03:58:17;;;;;;;38.03;23.13;;;;;;;19.21;77.33;97152.06;5090353;28;20181;-67
2021/07/17 04:00:42;;;;;;;41.17;24.50;;;;;;;19.01;75.88;97155.59;5085009;28;20182;-67
2021/07/17 04:03:08;;;;;;;33.93;23.40;;;;;;;18.81;77.56;97158.25;5090265;28;20182;-66
2021/07/17 04:05:34;;;;;;;40.83;23.87;;;;;;;18.67;78.01;97157.44;5090479;28;20201;-66
2021/07/17 04:08:00;;;;;;;38.67;24.30;;;;;;;18.62;78.88;97160.72;5091203;28;20223;-66
2021/07/17 04:10:25;;;;;;;38.57;23.80;;;;;;;18.80;77.34;97159.28;5082354;28;20423;-66
2021/07/17 04:12:51;;;;;;;41.10;24.77;;;;;;;18.94;76.61;97157.44;5090941;28;20189;-65
2021/07/17 04:15:16;;;;;;;36.63;23.30;;;;;;;19.07;76.31;97165.38;5088944;28;20218;-67
2021/07/17 04:17:42;;;;;;;43.20;22.90;;;;;;;19.19;75.63;97155.75;5091082;28;20273;-65
2021/07/17 04:20:09;;;;;;;38.57;23.50;;;;;;;19.16;75.68;97163.31;5091378;28;20178;-66
2021/07/17 04:22:36;;;;;;;34.93;22.50;;;;;;;19.13;75.83;97167.22;5090968;28;20217;-66
2021/07/17 04:25:05;;;;;;;33.50;21.70;;;;;;;19.01;76.56;97171.53;5090377;28;20463;-66
2021/07/17 04:27:31;;;;;;;37.57;23.97;;;;;;;19.02;76.25;97175.84;5090708;28;20825;-66
2021/07/17 04:29:57;;;;;;;39.30;23.50;;;;;;;19.02;76.52;97173.19;5088426;28;20434;-66
2021/07/17 04:32:23;;;;;;;33.23;23.57;;;;;;;19.07;76.23;97170.69;5090646;28;20177;-66
2021/07/17 04:34:48;;;;;;;35.73;22.97;;;;;;;19.13;76.48;97175.19;5090056;28;20221;-66
2021/07/17 04:37:15;;;;;;;33.27;22.60;;;;;;;19.38;75.23;97174.50;5102715;28;20181;-67
2021/07/17 04:39:41;;;;;;;36.23;22.03;;;;;;;19.39;74.89;97181.47;5094149;28;20562;-67
2021/07/17 04:42:07;;;;;;;30.77;19.97;;;;;;;19.75;74.39;97177.44;5093728;28;20460;-66
2021/07/17 04:44:32;;;;;;;28.43;20.50;;;;;;;19.76;72.89;97183.56;5093819;28;20206;-67
2021/07/17 04:46:58;;;;;;;32.77;21.20;;;;;;;19.83;72.83;97179.03;5094070;28;20198;-66
2021/07/17 04:49:23;;;;;;;30.43;20.90;;;;;;;19.33;74.56;97195.56;5093718;28;20182;-67
2021/07/17 04:51:49;;;;;;;46.03;20.67;;;;;;;19.09;75.51;97194.41;5099157;28;20641;-66
2021/07/17 04:54:15;;;;;;;31.63;21.83;;;;;;;19.22;75.82;97193.56;5093596;28;20206;-66
2021/07/17 04:56:41;;;;;;;35.90;23.43;;;;;;;19.00;76.30;97194.59;5094254;28;20194;-66
2021/07/17 04:59:06;;;;;;;37.60;22.30;;;;;;;19.15;76.01;97194.38;5089575;28;20187;-66
2021/07/17 05:01:32;;;;;;;37.90;23.53;;;;;;;19.07;76.42;97189.28;5092568;28;20170;-65
2021/07/17 05:03:57;;;;;;;36.40;22.40;;;;;;;19.09;76.65;97184.59;5093455;28;20205;-65
2021/07/17 05:06:23;;;;;;;37.70;22.47;;;;;;;19.25;75.83;97190.50;5093891;28;20223;-66
2021/07/17 05:08:48;;;;;;;32.57;22.67;;;;;;;19.59;74.63;97188.53;5094260;28;20228;-66
2021/07/17 05:11:14;;;;;;;34.23;24.57;;;;;;;19.22;75.84;97197.00;5093366;28;20190;-67
2021/07/17 05:13:39;;;;;;;35.43;23.47;;;;;;;19.21;75.55;97192.75;5091996;28;20653;-65
2021/07/17 05:16:05;;;;;;;34.73;23.20;;;;;;;18.82;77.69;97197.88;5093384;28;20197;-67
2021/07/17 05:18:32;;;;;;;38.33;23.70;;;;;;;19.00;76.69;97193.81;5093777;28;20174;-67
2021/07/17 05:20:58;;;;;;;35.43;23.80;;;;;;;18.71;77.75;97190.53;5094956;28;20205;-67
2021/07/17 05:23:24;;;;;;;39.37;24.33;;;;;;;19.13;76.29;97183.16;5083033;28;20416;-66
2021/07/17 05:25:51;;;;;;;37.73;24.47;;;;;;;19.31;75.42;97185.16;5078663;28;20448;-67
2021/07/17 05:28:17;;;;;;;34.30;24.23;;;;;;;19.18;76.23;97183.34;5080697;28;20427;-67
2021/07/17 05:30:44;;;;;;;35.13;23.30;;;;;;;19.03;76.55;97180.09;5079294;28;20471;-67
2021/07/17 05:33:10;;;;;;;36.43;23.17;;;;;;;19.12;76.58;97178.88;5077935;28;20415;-67
2021/07/17 05:35:36;;;;;;;38.27;24.30;;;;;;;19.13;76.24;97183.16;5078643;28;20552;-66
2021/07/17 05:38:02;;;;;;;44.20;24.20;;;;;;;19.18;76.50;97177.22;5078801;28;20459;-67
2021/07/17 05:40:28;;;;;;;40.67;25.27;;;;;;;18.81;77.88;97185.63;5088528;28;20186;-67
2021/07/17 05:42:54;;;;;;;37.10;23.40;;;;;;;19.13;76.28;97177.03;5084781;28;20417;-67
2021/07/17 05:45:19;;;;;;;32.47;24.23;;;;;;;19.37;75.85;97180.03;5090833;28;20186;-66
2021/07/17 05:47:45;;;;;;;32.50;22.43;;;;;;;19.59;74.55;97186.72;5085525;28;20250;-66
2021/07/17 05:50:12;;;;;;;31.43;23.40;;;;;;;19.56;74.29;97183.63;5088185;28;20224;-68
2021/07/17 05:52:38;;;;;;;34.77;22.87;;;;;;;19.56;74.65;97186.28;5086802;28;20173;-66
2021/07/17 05:55:04;;;;;;;32.73;22.03;;;;;;;19.49;74.39;97184.50;5088082;28;20455;-67
2021/07/17 05:57:32;;;;;;;33.10;22.07;;;;;;;19.40;74.94;97185.75;5093586;28;20664;-67
2021/07/17 06:00:00;;;;;;;29.63;20.40;;;;;;;19.62;74.85;97188.94;5094029;28;20932;-67
2021/07/17 06:02:26;;;;;;;31.50;21.40;;;;;;;19.40;74.85;97191.06;5094116;28;20431;-66
2021/07/17 06:04:53;;;;;;;38.67;22.30;;;;;;;19.41;75.42;97194.53;5093824;28;20918;-67
2021/07/17 06:07:19;;;;;;;33.83;22.80;;;;;;;19.42;75.61;97193.50;5093491;28;20181;-67
2021/07/17 06:09:45;;;;;;;31.53;22.80;;;;;;;19.46;75.80;97189.41;5090069;28;20777;-67
2021/07/17 06:12:10;;;;;;;37.63;21.83;;;;;;;19.42;75.26;97193.50;5092987;28;20423;-67
2021/07/17 06:14:37;;;;;;;31.67;21.67;;;;;;;19.40;75.63;97191.06;5092504;28;20198;-66
2021/07/17 06:17:03;;;;;;;43.33;22.70;;;;;;;19.21;76.41;97198.06;5092864;28;20201;-66
2021/07/17 06:19:29;;;;;;;37.03;22.67;;;;;;;19.11;76.92;97198.47;5097897;28;20780;-67
2021/07/17 06:21:55;;;;;;;49.17;22.93;;;;;;;19.32;75.74;97196.59;5095845;28;20439;-66
2021/07/17 06:24:20;;;;;;;38.70;22.60;;;;;;;19.69;74.31;97196.06;5092988;28;20202;-66
2021/07/17 06:26:46;;;;;;;41.23;21.87;;;;;;;19.70;73.99;97201.16;5093862;28;20185;-66
2021/07/17 06:29:11;;;;;;;38.73;21.07;;;;;;;19.71;74.12;97208.13;5091247;28;20208;-66
2021/07/17 06:31:37;;;;;;;32.23;21.27;;;;;;;19.75;74.04;97209.34;5086363;28;20184;-65
2021/07/17 06:34:05;;;;;;;33.47;21.40;;;;;;;19.74;74.43;97222.81;5089661;28;20178;-65
2021/07/17 06:36:31;;;;;;;34.90;20.27;;;;;;;20.29;72.65;97214.38;5086194;28;20282;-67
2021/07/17 06:38:57;;;;;;;32.50;19.90;;;;;;;19.82;73.52;97227.91;5089996;28;20435;-65
2021/07/17 06:41:23;;;;;;;34.93;20.20;;;;;;;20.02;74.11;97227.88;5093552;28;20419;-65
2021/07/17 06:43:49;;;;;;;29.80;20.20;;;;;;;20.30;72.24;97217.88;5096362;28;20178;-66
2021/07/17 06:46:14;;;;;;;32.43;19.53;;;;;;;19.91;73.73;97223.22;5091909;28;20672;-65
2021/07/17 06:48:40;;;;;;;34.10;20.40;;;;;;;19.92;74.51;97235.47;5092280;28;20185;-65
2021/07/17 06:51:06;;;;;;;33.80;21.83;;;;;;;20.01;72.64;97223.56;5086243;28;20181;-65
2021/07/17 06:53:31;;;;;;;34.63;20.60;;;;;;;19.93;72.88;97224.63;5091775;28;20174;-66
2021/07/17 06:55:57;;;;;;;36.23;22.43;;;;;;;19.98;73.46;97221.31;5087857;28;20623;-65
2021/07/17 06:58:22;;;;;;;32.90;20.20;;;;;;;19.99;73.26;97228.28;5086854;28;20178;-65
2021/07/17 07:00:48;;;;;;;32.20;20.80;;;;;;;19.47;75.28;97229.06;5084628;28;20231;-66
2021/07/17 07:03:16;;;;;;;38.57;21.00;;;;;;;19.83;74.28;97234.03;5091487;28;20185;-64
2021/07/17 07:05:41;;;;;;;35.43;22.20;;;;;;;20.00;73.62;97232.56;5090784;28;20531;-66
2021/07/17 07:08:07;;;;;;;41.10;21.53;;;;;;;20.10;73.40;97227.59;5088607;28;20186;-65
2021/07/17 07:10:33;;;;;;;27.87;21.70;;;;;;;20.10;73.09;97224.94;5091845;28;20181;-65
2021/07/17 07:12:58;;;;;;;35.30;21.67;;;;;;;19.77;74.45;97228.56;5091476;28;20182;-66
2021/07/17 07:15:25;;;;;;;40.13;22.57;;;;;;;20.18;73.89;97223.06;5091118;28;20810;-65
2021/07/17 07:17:51;;;;;;;37.47;21.40;;;;;;;19.83;74.91;97224.25;5092357;28;20185;-65
2021/07/17 07:20:16;;;;;;;34.20;20.50;;;;;;;19.98;74.96;97228.47;5090373;28;20408;-65
2021/07/17 07:22:42;;;;;;;38.70;20.87;;;;;;;19.92;74.42;97230.97;5091921;28;20190;-64
2021/07/17 07:25:09;;;;;;;35.30;20.30;;;;;;;19.53;76.36;97229.25;5091250;28;20198;-63
2021/07/17 07:27:35;;;;;;;28.40;19.60;;;;;;;19.75;75.90;97230.59;5091826;28;20189;-64
2021/07/17 07:30:01;;;;;;;32.50;20.77;;;;;;;20.32;73.38;97221.94;5091858;28;20518;-63
2021/07/17 07:32:27;;;;;;;28.67;20.80;;;;;;;20.14;74.58;97222.66;5083555;28;20449;-63
2021/07/17 07:34:53;;;;;;;36.03;20.30;;;;;;;20.15;74.17;97223.50;5091055;28;20547;-63
2021/07/17 07:37:18;;;;;;;32.70;20.43;;;;;;;19.98;74.93;97233.78;5091491;28;20922;-68
2021/07/17 07:39:44;;;;;;;37.47;22.00;;;;;;;19.69;75.14;97235.94;5083911;28;20194;-70
2021/07/17 07:42:09;;;;;;;38.67;22.63;;;;;;;19.83;75.12;97232.22;5079529;28;20239;-68
2021/07/17 07:44:36;;;;;;;33.80;22.00;;;;;;;20.05;74.87;97235.41;5079287;28;20687;-67
2021/07/17 07:47:03;;;;;;;30.87;21.03;;;;;;;19.74;75.74;97244.94;5077642;28;20182;-69
2021/07/17 07:49:29;;;;;;;49.73;22.67;;;;;;;19.70;76.41;97245.56;5090183;28;20480;-70
2021/07/17 07:51:55;;;;;;;36.40;20.83;;;;;;;20.03;75.35;97248.13;5091996;28;20522;-72
2021/07/17 07:54:20;;;;;;;30.17;21.47;;;;;;;20.29;74.16;97243.66;5091195;28;20216;-68
2021/07/17 07:56:46;;;;;;;40.93;21.40;;;;;;;20.25;73.36;97245.13;5090395;28;20292;-71
2021/07/17 07:59:12;;;;;;;34.27;21.57;;;;;;;20.63;72.72;97236.28;5091889;28;20648;-68
2021/07/17 08:01:37;;;;;;;31.03;22.40;;;;;;;20.64;71.62;97237.09;5092230;28;20412;-70
2021/07/17 08:04:03;;;;;;;36.77;22.17;;;;;;;20.49;72.01;97248.84;5092496;28;20181;-68
2021/07/17 08:06:28;;;;;;;30.73;21.67;;;;;;;20.67;71.75;97247.31;5091613;28;20264;-70
2021/07/17 08:08:54;;;;;;;45.10;24.00;;;;;;;20.21;74.47;97243.91;5088708;28;20586;-71
2021/07/17 08:11:20;;;;;;;34.70;22.10;;;;;;;20.41;74.24;97246.47;5094331;28;20192;-69
2021/07/17 08:13:45;;;;;;;35.30;21.80;;;;;;;20.20;75.10;97244.94;5087260;28;20306;-69
2021/07/17 08:16:11;;;;;;;32.93;23.43;;;;;;;20.22;75.89;97248.22;5087717;28;20311;-69
2021/07/17 08:18:37;;;;;;;35.47;24.07;;;;;;;20.19;76.19;97251.28;5086647;28;20227;-69
2021/07/17 08:21:02;;;;;;;44.07;22.77;;;;;;;19.78;77.79;97258.59;5080863;28;20174;-69
2021/07/17 08:23:28;;;;;;;44.20;22.70;;;;;;;19.84;77.55;97254.28;5089319;28;20565;-69
2021/07/17 08:25:53;;;;;;;36.77;24.17;;;;;;;19.78;78.12;97254.09;5094984;28;20277;-69
2021/07/17 08:28:19;;;;;;;39.50;23.27;;;;;;;19.84;77.81;97262.28;5095276;28;20184;-69
2021/07/17 08:30:45;;;;;;;35.17;24.17;;;;;;;19.65;78.17;97262.94;5076649;28;20211;-70
2021/07/17 08:33:11;;;;;;;41.33;24.70;;;;;;;19.68;78.31;97267.00;5089223;28;20174;-70
2021/07/17 08:35:36;;;;;;;40.70;24.50;;;;;;;19.92;77.39;97256.72;5095846;28;20204;-70
2021/07/17 08:38:02;;;;;;;30.90;23.67;;;;;;;20.04;77.46;97254.25;5103498;28;20431;-68
2021/07/17 08:40:28;;;;;;;38.63;23.30;;;;;;;20.13;76.57;97247.63;5079414;28;20189;-69
2021/07/17 08:42:55;;;;;;;40.83;25.07;;;;;;;19.57;78.25;97257.03;5094593;28;20514;-70
2021/07/17 08:45:22;;;;;;;46.73;25.17;;;;;;;19.92;76.81;97257.56;5095189;28;20225;-72
2021/07/17 08:47:54;;;;;;;44.43;24.13;;;;;;;20.02;76.86;97262.44;5076960;28;20526;-69
2021/07/17 08:50:23;;;;;;;37.53;24.73;;;;;;;19.78;76.40;97266.59;5089551;28;20494;-70
2021/07/17 08:52:58;;;;;;;43.67;24.80;;;;;;;19.78;77.23;97264.72;5085718;28;20452;-68
2021/07/17 08:55:27;;;;;;;36.40;25.03;;;;;;;19.60;77.40;97259.28;5090912;28;20463;-67
2021/07/17 08:57:53;;;;;;;46.63;25.47;;;;;;;19.98;76.13;97266.53;5087972;28;20416;-67
2021/07/17 09:00:20;;;;;;;43.33;24.30;;;;;;;20.14;75.49;97270.56;5095738;28;20492;-68
2021/07/17 09:02:47;;;;;;;39.93;25.67;;;;;;;20.42;74.15;97262.22;5092803;28;20772;-69
2021/07/17 09:05:16;;;;;;;50.97;26.40;;;;;;;20.05;75.84;97262.00;5090603;28;20973;-68
2021/07/17 09:07:42;;;;;;;42.73;26.13;;;;;;;20.46;74.18;97251.13;5089774;28;20424;-69
2021/07/17 09:10:27;;;;;;;40.70;26.10;;;;;;;21.09;71.30;97244.13;5092191;28;20435;-71
2021/07/17 09:13:28;;;;;;;35.83;23.80;;;;;;;21.37;69.49;97246.31;5077401;28;20429;-69
2021/07/17 09:16:08;;;;;;;31.93;21.57;;;;;;;21.05;70.53;97242.94;5093770;28;20524;-68
2021/07/17 09:18:48;;;;;;;31.10;20.50;;;;;;;21.65;68.13;97236.22;5093935;28;20436;-68
2021/07/17 09:21:19;;;;;;;43.23;22.00;;;;;;;21.51;68.67;97235.53;5093449;28;20424;-66
2021/07/17 09:23:57;;;;;;;33.50;21.33;;;;;;;21.63;68.04;97234.59;5092264;28;20411;-69
2021/07/17 09:26:34;;;;;;;32.80;20.90;;;;;;;21.66;68.18;97227.19;5092813;28;20930;-69
2021/07/17 09:29:05;;;;;;;38.43;22.13;;;;;;;21.52;68.41;97232.66;5095928;28;20463;-71
2021/07/17 09:31:32;;;;;;;40.60;20.67;;;;;;;21.40;69.10;97239.75;5095768;28;20499;-67
2021/07/17 09:34:08;;;;;;;32.83;21.23;;;;;;;21.37;68.78;97240.19;5087986;28;20431;-70
2021/07/17 09:36:50;;;;;;;28.40;19.70;;;;;;;21.68;67.36;97239.25;5075577;28;20523;-68
2021/07/17 09:39:17;;;;;;;31.70;21.00;;;;;;;21.60;68.22;97240.38;5089574;28;20858;-69
2021/07/17 09:41:55;;;;;;;31.93;20.30;;;;;;;21.12;69.76;97244.50;5075068;28;20427;-69
2021/07/17 09:44:23;;;;;;;26.90;19.77;;;;;;;21.22;69.48;97246.69;5091336;28;20525;-69
2021/07/17 09:46:48;;;;;;;30.17;19.97;;;;;;;21.59;67.82;97251.25;5092646;28;20431;-69
2021/07/17 09:49:17;;;;;;;32.70;20.17;;;;;;;21.53;67.66;97252.13;5094249;28;20424;-68
2021/07/17 09:51:44;;;;;;;34.47;19.40;;;;;;;21.30;69.37;97243.72;5091318;28;20185;-73
2021/07/17 09:54:10;;;;;;;32.93;20.30;;;;;;;21.28;69.19;97245.81;5058630;28;20430;-70
2021/07/17 09:56:40;;;;;;;33.50;20.00;;;;;;;21.35;69.50;97236.91;5092864;28;20452;-69
2021/07/17 09:59:09;;;;;;;36.57;20.10;;;;;;;21.26;69.72;97236.38;5089661;28;20189;-67
2021/07/17 10:01:41;;;;;;;25.43;18.57;;;;;;;21.05;69.86;97230.44;5094484;28;20476;-70
2021/07/17 10:04:10;;;;;;;28.27;20.03;;;;;;;20.96;70.37;97229.09;5091985;28;20452;-69
2021/07/17 10:06:40;;;;;;;31.57;19.23;;;;;;;21.05;70.43;97222.44;5092838;28;20468;-68
2021/07/17 10:09:33;;;;;;;26.33;18.60;;;;;;;21.34;69.21;97222.78;5089718;28;20420;-69
2021/07/17 10:12:06;;;;;;;24.23;19.60;;;;;;;21.68;67.83;97217.94;5102341;28;20760;-69
2021/07/17 10:14:37;;;;;;;34.77;20.87;;;;;;;21.22;69.55;97222.69;5084414;28;21153;-67
2021/07/17 10:17:08;;;;;;;36.33;20.70;;;;;;;21.13;70.39;97214.16;5092837;28;20451;-70
2021/07/17 10:19:35;;;;;;;29.57;21.07;;;;;;;21.04;70.72;97217.34;5091269;28;20451;-68
2021/07/17 10:22:01;;;;;;;29.03;21.90;;;;;;;21.29;69.38;97218.13;5092469;28;20428;-69
2021/07/17 10:24:27;;;;;;;33.10;20.63;;;;;;;21.49;68.76;97206.44;5092032;28;20450;-66
2021/07/17 10:26:53;;;;;;;31.00;20.63;;;;;;;21.68;68.46;97201.94;5092140;28;20479;-69
2021/07/17 10:29:20;;;;;;;32.80;20.70;;;;;;;22.05;66.94;97193.06;5092939;28;20450;-70
2021/07/17 10:31:47;;;;;;;34.10;19.93;;;;;;;22.15;66.49;97197.81;5092686;28;20507;-68
2021/07/17 10:34:14;;;;;;;33.83;21.17;;;;;;;21.70;67.78;97196.34;5098506;28;20415;-71
2021/07/17 10:36:55;;;;;;;35.07;22.10;;;;;;;21.50;68.84;97208.06;5093183;28;20823;-69
2021/07/17 10:39:24;;;;;;;35.87;22.10;;;;;;;22.09;66.96;97194.22;5087534;28;20439;-67
2021/07/17 10:41:49;;;;;;;26.00;20.43;;;;;;;22.64;64.90;97192.41;5086550;28;20436;-67
2021/07/17 10:44:15;;;;;;;28.17;20.80;;;;;;;22.31;65.68;97196.34;5092671;28;20469;-66
2021/07/17 10:46:42;;;;;;;35.63;21.20;;;;;;;22.08;66.38;97195.25;5094431;28;20611;-68
2021/07/17 10:49:12;;;;;;;33.07;20.60;;;;;;;22.25;65.51;97193.56;5099277;28;20628;-65
2021/07/17 10:51:39;;;;;;;29.87;20.83;;;;;;;22.38;65.24;97197.88;5091424;28;20489;-65
2021/07/17 10:54:12;;;;;;;29.03;19.67;;;;;;;22.27;65.64;97205.88;5092848;28;20432;-67
2021/07/17 10:56:45;;;;;;;27.63;19.77;;;;;;;22.25;65.63;97192.75;5093890;28;20455;-68
2021/07/17 10:59:11;;;;;;;38.97;20.30;;;;;;;22.36;65.57;97199.19;5094940;28;20573;-67
2021/07/17 11:01:55;;;;;;;29.27;20.07;;;;;;;22.20;65.49;97190.78;5095914;28;20448;-68
2021/07/17 11:04:55;;;;;;;27.03;19.17;;;;;;;22.44;64.35;97198.88;5088648;28;20214;-64
2021/07/17 11:07:23;;;;;;;28.70;18.87;;;;;;;22.81;63.30;97195.22;5094293;28;20953;-66
2021/07/17 11:10:02;;;;;;;23.90;17.20;;;;;;;22.58;63.93;97194.16;5079592;28;20442;-66
2021/07/17 11:12:30;;;;;;;24.40;19.10;;;;;;;22.39;64.62;97191.50;5088630;28;20416;-64
2021/07/17 11:15:07;;;;;;;28.30;19.77;;;;;;;22.52;64.27;97193.22;5078849;28;20494;-67
2021/07/17 11:17:54;;;;;;;23.20;17.00;;;;;;;22.95;63.10;97199.28;5085646;28;20419;-65